Stations météo

réclame
Mon MeteoGroup
Valencia, Espagne (8285): Température de l'air & dewpoint: 14.08.2018 19:00:00 - 20.08.2018 19:00:00 (CEST)Valencia, Espagne (8285): Vitesse du vent & gusts: 14.08.2018 19:00:00 - 20.08.2018 19:00:00 (CEST)Valencia, Espagne (8285): Direction du vent: 14.08.2018 19:00:00 - 20.08.2018 19:00:00 (CEST)Valencia, Espagne (8285): Quantités de précipitations: 14.08.2018 19:00:00 - 20.08.2018 19:00:00 (CEST)
Date & Time tt [°C] td [°C] ff [km/h] ff [knt] fx [km/h] fx [knt] dd rr [mm]
20.08.2018 19:00:00 - - - - - - - -
20.08.2018 18:00:00 30,1 12,1 12 6 29 16 SE 0,0
20.08.2018 17:00:00 30,8 11,7 11 6 24 13 SSE 0,0
20.08.2018 16:00:00 31,2 11,6 11 6 24 13 SE 0,0
20.08.2018 15:00:00 31,6 11,4 12 7 26 14 ESE 0,0
20.08.2018 14:00:00 31,3 10,6 10 5 23 13 ESE -
20.08.2018 13:00:00 31,8 12,1 5 3 11 6 SSE 0,0
20.08.2018 12:00:00 31,0 12,8 4 2 11 6 S 0,0
20.08.2018 11:00:00 28,1 13,3 4 2 14 7 SW 0,0
20.08.2018 10:00:00 24,6 13,5 4 2 10 6 W 0,0
20.08.2018 09:00:00 22,2 13,1 5 3 10 5 W 0,0
20.08.2018 08:00:00 21,5 12,8 4 2 10 5 SW -
20.08.2018 07:00:00 21,4 13,1 4 2 12 6 SW 0,0
20.08.2018 06:00:00 21,3 13,0 4 2 10 5 WSW 0,0
20.08.2018 05:00:00 21,4 13,6 2 1 8 4 W 0,0
20.08.2018 04:00:00 21,8 13,7 3 2 11 6 WSW 0,0
20.08.2018 03:00:00 22,5 14,9 4 2 9 5 WSW 0,0
20.08.2018 02:00:00 23,2 17,0 4 2 10 6 WSW -
20.08.2018 01:00:00 22,9 16,5 4 2 7 4 WSW 0,0
20.08.2018 00:00:00 23,7 17,2 0 0 5 3 N 0,0
19.08.2018 23:00:00 24,2 17,5 2 1 5 3 N 0,0
19.08.2018 22:00:00 25,2 17,6 2 1 9 5 N 0,0
19.08.2018 21:00:00 25,9 17,3 3 2 11 6 NNE 0,0
19.08.2018 20:00:00 27,0 16,3 3 2 13 7 SSE -
19.08.2018 19:00:00 27,5 14,8 7 4 20 11 SE 0,0
19.08.2018 18:00:00 27,5 14,1 9 5 24 13 SSE 0,0
19.08.2018 17:00:00 28,2 13,0 10 6 22 12 ESE 0,0
19.08.2018 16:00:00 28,9 13,2 7 4 21 11 ESE 0,0
19.08.2018 15:00:00 28,8 13,5 6 4 21 11 ESE 0,0
19.08.2018 14:00:00 28,2 14,0 9 5 21 11 ESE -
19.08.2018 13:00:00 28,8 14,6 3 2 17 9 ESE 0,0
19.08.2018 12:00:00 28,7 15,3 1 1 12 6 NE 0,0
19.08.2018 11:00:00 27,3 17,1 2 1 13 7 WSW 0,0
19.08.2018 10:00:00 24,2 17,5 2 1 11 6 W 0,0
19.08.2018 09:00:00 22,4 17,3 3 2 9 5 W 0,0
19.08.2018 08:00:00 21,5 17,5 4 2 11 6 NW -
19.08.2018 07:00:00 21,7 17,7 4 2 9 5 W 0,0
19.08.2018 06:00:00 22,1 17,9 2 1 8 5 W 0,0
19.08.2018 05:00:00 22,7 18,2 2 1 7 4 NW 0,0
19.08.2018 04:00:00 22,9 18,2 0 0 5 3 W 0,0
19.08.2018 03:00:00 23,3 18,2 2 1 7 4 NW 0,0
19.08.2018 02:00:00 23,5 18,4 3 2 6 3 N -
19.08.2018 01:00:00 23,9 18,8 3 2 8 4 N 0,0
19.08.2018 00:00:00 24,5 18,7 1 1 8 4 N 0,0
18.08.2018 23:00:00 24,7 18,4 0 0 6 4 W 0,0
18.08.2018 22:00:00 24,8 18,2 1 1 11 6 SSE 0,0
18.08.2018 21:00:00 24,8 18,2 2 1 14 8 SSE 0,0
18.08.2018 20:00:00 25,2 18,6 4 2 17 9 ESE -
18.08.2018 19:00:00 25,6 17,2 5 3 23 12 E 0,0
18.08.2018 18:00:00 25,5 16,0 11 6 29 16 ESE 0,0
18.08.2018 17:00:00 26,4 15,8 9 5 21 12 ESE 0,0
18.08.2018 16:00:00 26,2 15,5 8 4 21 11 ESE 0,0
18.08.2018 15:00:00 25,7 14,1 8 4 19 10 ESE 0,0
18.08.2018 14:00:00 25,6 14,0 4 2 21 12 ESE -
18.08.2018 13:00:00 25,9 12,3 6 3 16 9 ESE 0,0
18.08.2018 12:00:00 25,9 13,8 3 2 20 11 E 0,0
18.08.2018 11:00:00 26,2 13,7 3 2 17 9 NNE 0,0
18.08.2018 10:00:00 24,4 13,9 4 2 16 9 NNE 0,0
18.08.2018 09:00:00 23,0 14,3 3 2 12 6 N 0,0
18.08.2018 08:00:00 22,9 15,3 3 2 13 7 N -
18.08.2018 07:00:00 23,1 17,3 4 2 13 7 N 0,0
18.08.2018 06:00:00 22,9 18,6 4 2 6 4 N 0,0
18.08.2018 05:00:00 22,7 18,5 0 0 10 5 NNW 0,0
18.08.2018 04:00:00 22,8 18,8 4 2 13 7 WSW 0,0
18.08.2018 03:00:00 22,5 18,5 4 2 15 8 N 0,0
18.08.2018 02:00:00 22,6 19,2 6 4 20 11 N -
18.08.2018 01:00:00 23,2 19,1 8 4 23 12 N 0,0
18.08.2018 00:00:00 24,8 17,5 3 1 21 11 ENE 0,0
17.08.2018 23:00:00 25,1 17,3 0 0 11 6 NNW 0,0
17.08.2018 22:00:00 25,5 16,6 1 0 13 7 SSE 0,0
17.08.2018 21:00:00 25,7 16,8 4 2 12 6 N 0,0
17.08.2018 20:00:00 26,0 16,2 4 2 13 7 SE -
17.08.2018 19:00:00 25,9 16,1 6 4 18 10 ESE 0,0
17.08.2018 18:00:00 26,0 17,4 9 5 20 11 ESE 0,0
17.08.2018 17:00:00 27,2 16,2 11 6 24 13 SE 0,0
17.08.2018 16:00:00 26,7 16,9 10 5 27 15 ESE 0,0
17.08.2018 15:00:00 26,3 17,9 15 8 29 16 ESE 0,0
17.08.2018 14:00:00 26,4 18,0 12 6 26 14 ESE -
17.08.2018 13:00:00 27,8 16,7 9 5 34 18 ESE 0,0
17.08.2018 12:00:00 28,5 17,1 5 3 24 13 ENE 0,0
17.08.2018 11:00:00 28,3 15,3 2 1 15 8 E 0,0
17.08.2018 10:00:00 25,5 16,4 2 1 11 6 WNW 0,0
17.08.2018 09:00:00 23,9 16,9 3 2 13 7 N 0,0
17.08.2018 08:00:00 23,5 17,1 5 3 12 7 NNW -
17.08.2018 07:00:00 23,9 17,9 4 2 11 6 N 0,0
17.08.2018 06:00:00 23,8 19,5 6 3 12 7 NNW 0,0
17.08.2018 05:00:00 23,8 20,1 4 2 12 7 NNW 0,0
17.08.2018 04:00:00 23,7 20,1 5 3 11 6 N 0,0
17.08.2018 03:00:00 24,1 19,8 5 3 14 7 N 0,0
17.08.2018 02:00:00 24,1 19,6 7 4 13 7 NNE -
17.08.2018 01:00:00 24,3 19,8 1 1 9 5 NNW 0,0
17.08.2018 00:00:00 24,5 18,9 1 0 6 3 ENE 0,0
16.08.2018 23:00:00 25,0 18,7 0 0 8 5 NNE 0,0
16.08.2018 22:00:00 24,8 16,7 4 2 8 4 N 0,0
16.08.2018 21:00:00 25,9 17,5 0 0 10 5 SW 0,0
16.08.2018 20:00:00 - - - - - - - -
16.08.2018 19:00:00 27,9 16,2 5 3 20 11 SSE 0,0
16.08.2018 18:00:00 28,0 16,3 7 4 16 8 SSE 0,0
16.08.2018 17:00:00 27,3 18,8 9 5 14 8 ESE 0,0
16.08.2018 16:00:00 27,3 19,3 6 3 15 8 ESE 0,0
16.08.2018 15:00:00 26,6 20,7 7 4 15 8 ESE 0,0
16.08.2018 14:00:00 26,4 20,5 3 2 10 6 NNE -
16.08.2018 13:00:00 25,4 20,4 5 3 21 11 SE 0,0
16.08.2018 12:00:00 23,9 19,4 10 5 21 12 SW 0,0
16.08.2018 11:00:00 24,1 18,3 5 3 12 7 S 0,0
16.08.2018 10:00:00 24,1 18,5 4 2 21 11 ESE 0,0
16.08.2018 09:00:00 24,6 20,3 3 2 11 6 ESE 0,0
16.08.2018 08:00:00 24,7 21,0 5 3 10 5 N -
16.08.2018 07:00:00 24,4 20,7 4 2 16 9 N 0,0
16.08.2018 06:00:00 25,1 22,0 6 3 14 8 N 0,0
16.08.2018 05:00:00 26,0 21,9 6 3 11 6 N 0,0
16.08.2018 04:00:00 26,1 21,8 3 2 7 4 NNE 0,0
16.08.2018 03:00:00 26,1 21,5 3 2 8 4 N 0,0
16.08.2018 02:00:00 26,3 21,3 1 0 10 6 ENE -
16.08.2018 01:00:00 26,6 20,9 3 1 11 6 ESE 0,0
16.08.2018 00:00:00 26,8 20,7 6 3 12 7 ESE 0,0
15.08.2018 23:00:00 26,9 20,3 10 5 20 11 ESE 0,0
15.08.2018 22:00:00 26,9 20,3 9 5 26 14 SSE 0,0
15.08.2018 21:00:00 26,9 20,3 12 6 25 14 ESE 0,0
15.08.2018 20:00:00 27,2 20,3 11 6 25 14 ESE -
15.08.2018 19:00:00 27,1 20,5 12 7 31 17 ESE 0,0
15.08.2018 18:00:00 27,4 20,5 9 5 29 16 E 0,0
15.08.2018 17:00:00 27,8 20,6 10 5 25 13 ESE 0,0
15.08.2018 16:00:00 29,0 20,7 6 3 24 13 ESE 0,0
15.08.2018 15:00:00 29,2 19,5 4 2 22 12 E 0,0
15.08.2018 14:00:00 29,4 19,4 5 3 22 12 ENE -
15.08.2018 13:00:00 28,8 18,8 4 2 22 12 NE 0,0
15.08.2018 12:00:00 27,5 18,2 4 2 20 11 NNE 0,0
15.08.2018 11:00:00 26,9 17,7 5 3 16 8 NE 0,0
15.08.2018 10:00:00 25,8 17,9 3 2 12 6 NNE 0,0
15.08.2018 09:00:00 25,1 19,0 5 3 11 6 N 0,0
15.08.2018 08:00:00 24,7 20,0 4 2 11 6 N -
15.08.2018 07:00:00 24,3 20,2 4 2 8 4 N 0,0
15.08.2018 06:00:00 24,2 20,1 3 2 6 3 N 0,0
15.08.2018 05:00:00 24,2 20,1 3 2 8 4 N 0,0
15.08.2018 04:00:00 24,6 20,1 3 1 9 5 NNW 0,0
15.08.2018 03:00:00 24,9 19,7 3 2 12 6 N 0,0
15.08.2018 02:00:00 25,3 20,1 6 3 14 8 N -
15.08.2018 01:00:00 25,3 20,3 6 4 12 6 N 0,0
15.08.2018 00:00:00 25,6 20,4 7 4 12 6 N 0,0
14.08.2018 23:00:00 26,0 20,8 4 2 10 5 NNE 0,0
14.08.2018 22:00:00 26,2 20,1 1 0 10 5 N 0,0
14.08.2018 21:00:00 26,4 20,0 0 0 13 7 SSE 0,0
14.08.2018 20:00:00 26,9 19,5 3 2 21 11 ESE -
14.08.2018 19:00:00 27,3 18,0 8 4 22 12 ESE 0,0

tt = Température de l'air
td = dewpoint
ff = Vitesse du vent
fx = gusts
dd = Direction du vent
rr = Quantités de précipitations

stations d'obs. à proximité